CBB3 weather

Lake Muskoka/Boyd Bay Seaplane Base
Lake Muskoka, Ontario, Canada

Public forecast

Using degrees Celsius for public forecast. Weather courtesy of forecast.io.

METAR (pilot weather report)

Closest report is Muskoka Airport, 6.4 nm (11.8 km) SE. Retrieved 2019/07/22 17:00 UTC (22 minutes ago):

CYQA 221700Z AUTO 07004KT 030V150 9SM SCT110 SCT150 22/13 A2990 RMK SLP127 DENSITY ALT 1900FT

TAF (pilot weather forecast)

Closest forecast is Muskoka Airport, 6.4 nm (11.8 km) SE. Retrieved 2019/07/22 14:42 UTC (3 hours ago):

TAF CYQA 221339Z 2214/2302 VRB03KT P6SM BKN050 OVC220 FM222000 31010KT P6SM FEW050 SCT150 FM230000 31005KT P6SM SKC RMK FCST BASED ON AUTO OBS. NXT FCST BY 222000Z